sensor_id;sensor_type;location;lat;lon;timestamp;P1;durP1;ratioP1;P2;durP2;ratioP2
71174;SDS011;58876;51.994;4.472;2024-03-17T00:01:00;8.35;;;8.35;;
71174;SDS011;58876;51.994;4.472;2024-03-17T00:03:28;8.64;;;8.64;;
71174;SDS011;58876;51.994;4.472;2024-03-17T00:05:55;8.19;;;8.19;;
71174;SDS011;58876;51.994;4.472;2024-03-17T00:08:25;8.29;;;8.29;;
71174;SDS011;58876;51.994;4.472;2024-03-17T00:10:52;8.34;;;8.34;;
71174;SDS011;58876;51.994;4.472;2024-03-17T00:13:18;8.38;;;8.38;;
71174;SDS011;58876;51.994;4.472;2024-03-17T00:15:44;8.17;;;8.17;;
71174;SDS011;58876;51.994;4.472;2024-03-17T00:18:10;8.26;;;8.26;;
71174;SDS011;58876;51.994;4.472;2024-03-17T00:20:36;7.97;;;7.97;;
71174;SDS011;58876;51.994;4.472;2024-03-17T00:23:02;8.36;;;8.36;;
71174;SDS011;58876;51.994;4.472;2024-03-17T00:25:27;7.94;;;7.94;;
71174;SDS011;58876;51.994;4.472;2024-03-17T00:27:53;7.84;;;7.84;;
71174;SDS011;58876;51.994;4.472;2024-03-17T00:30:22;8.07;;;8.07;;
71174;SDS011;58876;51.994;4.472;2024-03-17T00:32:47;7.88;;;7.88;;
71174;SDS011;58876;51.994;4.472;2024-03-17T00:35:12;7.84;;;7.84;;
71174;SDS011;58876;51.994;4.472;2024-03-17T00:37:45;8.10;;;8.10;;
71174;SDS011;58876;51.994;4.472;2024-03-17T00:40:14;8.06;;;8.06;;
71174;SDS011;58876;51.994;4.472;2024-03-17T00:42:41;7.70;;;7.70;;
71174;SDS011;58876;51.994;4.472;2024-03-17T00:45:07;8.03;;;8.03;;
71174;SDS011;58876;51.994;4.472;2024-03-17T00:47:33;7.75;;;7.75;;
71174;SDS011;58876;51.994;4.472;2024-03-17T00:49:58;7.89;;;7.89;;
71174;SDS011;58876;51.994;4.472;2024-03-17T00:52:24;7.39;;;7.39;;
71174;SDS011;58876;51.994;4.472;2024-03-17T00:54:49;7.38;;;7.38;;
71174;SDS011;58876;51.994;4.472;2024-03-17T00:57:15;7.21;;;7.21;;
71174;SDS011;58876;51.994;4.472;2024-03-17T00:59:43;7.20;;;7.20;;
71174;SDS011;58876;51.994;4.472;2024-03-17T01:02:10;7.59;;;7.59;;
71174;SDS011;58876;51.994;4.472;2024-03-17T01:04:37;7.63;;;7.63;;
71174;SDS011;58876;51.994;4.472;2024-03-17T01:07:04;7.21;;;7.21;;
71174;SDS011;58876;51.994;4.472;2024-03-17T01:09:30;7.28;;;7.28;;
71174;SDS011;58876;51.994;4.472;2024-03-17T01:11:55;7.57;;;7.57;;
71174;SDS011;58876;51.994;4.472;2024-03-17T01:14:20;7.04;;;7.04;;
71174;SDS011;58876;51.994;4.472;2024-03-17T01:16:46;7.29;;;7.29;;
71174;SDS011;58876;51.994;4.472;2024-03-17T01:19:11;7.52;;;7.52;;
71174;SDS011;58876;51.994;4.472;2024-03-17T01:21:37;7.60;;;7.60;;
71174;SDS011;58876;51.994;4.472;2024-03-17T01:24:02;7.58;;;7.58;;
71174;SDS011;58876;51.994;4.472;2024-03-17T01:26:28;7.52;;;7.52;;
71174;SDS011;58876;51.994;4.472;2024-03-17T01:28:53;7.55;;;7.55;;
71174;SDS011;58876;51.994;4.472;2024-03-17T01:31:19;7.70;;;7.70;;
71174;SDS011;58876;51.994;4.472;2024-03-17T01:33:44;7.64;;;7.63;;
71174;SDS011;58876;51.994;4.472;2024-03-17T01:36:11;8.04;;;8.03;;
71174;SDS011;58876;51.994;4.472;2024-03-17T01:38:37;7.83;;;7.82;;
71174;SDS011;58876;51.994;4.472;2024-03-17T01:41:03;7.98;;;7.98;;
71174;SDS011;58876;51.994;4.472;2024-03-17T01:43:29;8.03;;;8.03;;
71174;SDS011;58876;51.994;4.472;2024-03-17T01:45:56;7.89;;;7.89;;
71174;SDS011;58876;51.994;4.472;2024-03-17T01:48:23;8.08;;;8.08;;
71174;SDS011;58876;51.994;4.472;2024-03-17T01:50:51;8.39;;;8.39;;
71174;SDS011;58876;51.994;4.472;2024-03-17T01:53:20;8.52;;;8.52;;
71174;SDS011;58876;51.994;4.472;2024-03-17T01:55:49;8.22;;;8.22;;
71174;SDS011;58876;51.994;4.472;2024-03-17T01:58:15;8.35;;;8.35;;
71174;SDS011;58876;51.994;4.472;2024-03-17T02:00:41;8.58;;;8.58;;
71174;SDS011;58876;51.994;4.472;2024-03-17T02:03:08;8.73;;;8.73;;
71174;SDS011;58876;51.994;4.472;2024-03-17T02:05:39;8.60;;;8.60;;
71174;SDS011;58876;51.994;4.472;2024-03-17T02:08:07;8.62;;;8.62;;
71174;SDS011;58876;51.994;4.472;2024-03-17T02:10:36;8.93;;;8.93;;
71174;SDS011;58876;51.994;4.472;2024-03-17T02:13:03;8.65;;;8.65;;
71174;SDS011;58876;51.994;4.472;2024-03-17T02:15:29;8.68;;;8.68;;
71174;SDS011;58876;51.994;4.472;2024-03-17T02:17:55;8.83;;;8.83;;
71174;SDS011;58876;51.994;4.472;2024-03-17T02:20:20;8.97;;;8.97;;
71174;SDS011;58876;51.994;4.472;2024-03-17T02:23:06;9.30;;;9.30;;
71174;SDS011;58876;51.994;4.472;2024-03-17T02:25:31;8.67;;;8.67;;
71174;SDS011;58876;51.994;4.472;2024-03-17T02:27:57;8.60;;;8.60;;
71174;SDS011;58876;51.994;4.472;2024-03-17T02:30:22;9.15;;;9.15;;
71174;SDS011;58876;51.994;4.472;2024-03-17T02:32:51;9.22;;;9.22;;
71174;SDS011;58876;51.994;4.472;2024-03-17T02:35:17;8.86;;;8.86;;
71174;SDS011;58876;51.994;4.472;2024-03-17T02:37:43;9.38;;;9.38;;
71174;SDS011;58876;51.994;4.472;2024-03-17T02:40:08;9.35;;;9.35;;
71174;SDS011;58876;51.994;4.472;2024-03-17T02:42:35;9.75;;;9.75;;
71174;SDS011;58876;51.994;4.472;2024-03-17T02:45:03;8.97;;;8.97;;
71174;SDS011;58876;51.994;4.472;2024-03-17T02:47:29;9.41;;;9.41;;
71174;SDS011;58876;51.994;4.472;2024-03-17T02:49:55;9.53;;;9.53;;
71174;SDS011;58876;51.994;4.472;2024-03-17T02:52:20;9.92;;;9.92;;
71174;SDS011;58876;51.994;4.472;2024-03-17T02:54:46;9.30;;;9.30;;
71174;SDS011;58876;51.994;4.472;2024-03-17T02:57:11;9.28;;;9.28;;
71174;SDS011;58876;51.994;4.472;2024-03-17T02:59:37;9.61;;;9.61;;
71174;SDS011;58876;51.994;4.472;2024-03-17T03:02:02;9.15;;;9.15;;
71174;SDS011;58876;51.994;4.472;2024-03-17T03:04:29;9.24;;;9.24;;
71174;SDS011;58876;51.994;4.472;2024-03-17T03:06:55;9.75;;;9.75;;
71174;SDS011;58876;51.994;4.472;2024-03-17T03:09:20;9.33;;;9.33;;
71174;SDS011;58876;51.994;4.472;2024-03-17T03:11:56;8.94;;;8.94;;
71174;SDS011;58876;51.994;4.472;2024-03-17T03:14:22;8.86;;;8.86;;
71174;SDS011;58876;51.994;4.472;2024-03-17T03:16:47;9.25;;;9.25;;
71174;SDS011;58876;51.994;4.472;2024-03-17T03:19:14;8.76;;;8.76;;
71174;SDS011;58876;51.994;4.472;2024-03-17T03:21:40;8.85;;;8.85;;
71174;SDS011;58876;51.994;4.472;2024-03-17T03:24:05;8.87;;;8.87;;
71174;SDS011;58876;51.994;4.472;2024-03-17T03:26:31;9.23;;;9.23;;
71174;SDS011;58876;51.994;4.472;2024-03-17T03:28:56;9.04;;;9.04;;
71174;SDS011;58876;51.994;4.472;2024-03-17T03:31:22;9.04;;;9.04;;
71174;SDS011;58876;51.994;4.472;2024-03-17T03:33:47;8.89;;;8.89;;
71174;SDS011;58876;51.994;4.472;2024-03-17T03:36:14;8.76;;;8.76;;
71174;SDS011;58876;51.994;4.472;2024-03-17T03:38:41;8.85;;;8.85;;
71174;SDS011;58876;51.994;4.472;2024-03-17T03:41:10;9.07;;;9.07;;
71174;SDS011;58876;51.994;4.472;2024-03-17T03:43:38;9.00;;;9.00;;
71174;SDS011;58876;51.994;4.472;2024-03-17T03:46:04;9.33;;;9.33;;
71174;SDS011;58876;51.994;4.472;2024-03-17T03:48:31;9.84;;;9.84;;
71174;SDS011;58876;51.994;4.472;2024-03-17T03:50:57;9.55;;;9.55;;
71174;SDS011;58876;51.994;4.472;2024-03-17T03:53:24;9.80;;;9.80;;
71174;SDS011;58876;51.994;4.472;2024-03-17T03:55:49;9.60;;;9.60;;
71174;SDS011;58876;51.994;4.472;2024-03-17T03:58:15;9.80;;;9.80;;
71174;SDS011;58876;51.994;4.472;2024-03-17T04:00:41;9.63;;;9.63;;
71174;SDS011;58876;51.994;4.472;2024-03-17T04:03:06;10.14;;;10.14;;
71174;SDS011;58876;51.994;4.472;2024-03-17T04:05:32;9.84;;;9.84;;
71174;SDS011;58876;51.994;4.472;2024-03-17T04:08:00;9.93;;;9.92;;
71174;SDS011;58876;51.994;4.472;2024-03-17T04:10:25;10.05;;;10.05;;
71174;SDS011;58876;51.994;4.472;2024-03-17T04:12:51;10.38;;;10.38;;
71174;SDS011;58876;51.994;4.472;2024-03-17T04:15:18;9.93;;;9.93;;
71174;SDS011;58876;51.994;4.472;2024-03-17T04:17:44;10.36;;;10.36;;
71174;SDS011;58876;51.994;4.472;2024-03-17T04:20:10;10.08;;;10.08;;
71174;SDS011;58876;51.994;4.472;2024-03-17T04:22:38;9.99;;;9.99;;
71174;SDS011;58876;51.994;4.472;2024-03-17T04:25:05;10.17;;;10.17;;
71174;SDS011;58876;51.994;4.472;2024-03-17T04:27:30;10.10;;;10.10;;
71174;SDS011;58876;51.994;4.472;2024-03-17T04:29:56;10.21;;;10.21;;
71174;SDS011;58876;51.994;4.472;2024-03-17T04:32:23;10.55;;;10.55;;
71174;SDS011;58876;51.994;4.472;2024-03-17T04:34:49;10.73;;;10.73;;
71174;SDS011;58876;51.994;4.472;2024-03-17T04:37:15;10.57;;;10.57;;
71174;SDS011;58876;51.994;4.472;2024-03-17T04:39:44;11.01;;;11.01;;
71174;SDS011;58876;51.994;4.472;2024-03-17T04:42:14;11.19;;;11.19;;
71174;SDS011;58876;51.994;4.472;2024-03-17T04:44:44;11.38;;;11.38;;
71174;SDS011;58876;51.994;4.472;2024-03-17T04:47:10;11.39;;;11.39;;
71174;SDS011;58876;51.994;4.472;2024-03-17T04:49:38;11.47;;;11.46;;
71174;SDS011;58876;51.994;4.472;2024-03-17T04:52:05;11.58;;;11.58;;
71174;SDS011;58876;51.994;4.472;2024-03-17T04:54:31;11.73;;;11.73;;
71174;SDS011;58876;51.994;4.472;2024-03-17T04:56:57;11.67;;;11.67;;
71174;SDS011;58876;51.994;4.472;2024-03-17T04:59:22;11.85;;;11.85;;
71174;SDS011;58876;51.994;4.472;2024-03-17T05:01:48;12.00;;;12.00;;
71174;SDS011;58876;51.994;4.472;2024-03-17T05:04:14;12.11;;;12.11;;
71174;SDS011;58876;51.994;4.472;2024-03-17T05:06:40;12.68;;;12.68;;
71174;SDS011;58876;51.994;4.472;2024-03-17T05:09:07;12.69;;;12.69;;
71174;SDS011;58876;51.994;4.472;2024-03-17T05:11:33;12.65;;;12.65;;
71174;SDS011;58876;51.994;4.472;2024-03-17T05:14:00;12.24;;;12.24;;
71174;SDS011;58876;51.994;4.472;2024-03-17T05:16:26;12.74;;;12.74;;
71174;SDS011;58876;51.994;4.472;2024-03-17T05:18:54;12.58;;;12.58;;
71174;SDS011;58876;51.994;4.472;2024-03-17T05:21:21;12.91;;;12.91;;
71174;SDS011;58876;51.994;4.472;2024-03-17T05:23:47;12.49;;;12.49;;
71174;SDS011;58876;51.994;4.472;2024-03-17T05:26:13;13.10;;;13.09;;
71174;SDS011;58876;51.994;4.472;2024-03-17T05:28:39;12.76;;;12.76;;
71174;SDS011;58876;51.994;4.472;2024-03-17T05:31:05;12.50;;;12.50;;
71174;SDS011;58876;51.994;4.472;2024-03-17T05:33:30;12.22;;;12.22;;
71174;SDS011;58876;51.994;4.472;2024-03-17T05:35:57;12.32;;;12.32;;
71174;SDS011;58876;51.994;4.472;2024-03-17T05:38:25;12.60;;;12.60;;
71174;SDS011;58876;51.994;4.472;2024-03-17T05:40:58;12.64;;;12.64;;
71174;SDS011;58876;51.994;4.472;2024-03-17T05:43:25;12.70;;;12.70;;
71174;SDS011;58876;51.994;4.472;2024-03-17T05:45:53;12.27;;;12.27;;
71174;SDS011;58876;51.994;4.472;2024-03-17T05:48:19;12.91;;;12.91;;
71174;SDS011;58876;51.994;4.472;2024-03-17T05:50:46;12.33;;;12.33;;
71174;SDS011;58876;51.994;4.472;2024-03-17T05:53:11;12.48;;;12.48;;
71174;SDS011;58876;51.994;4.472;2024-03-17T05:55:37;12.42;;;12.42;;
71174;SDS011;58876;51.994;4.472;2024-03-17T05:58:03;12.54;;;12.54;;
71174;SDS011;58876;51.994;4.472;2024-03-17T06:00:29;12.07;;;12.07;;
71174;SDS011;58876;51.994;4.472;2024-03-17T06:02:56;12.50;;;12.50;;
71174;SDS011;58876;51.994;4.472;2024-03-17T06:05:22;12.47;;;12.47;;
71174;SDS011;58876;51.994;4.472;2024-03-17T06:07:47;12.42;;;12.42;;
71174;SDS011;58876;51.994;4.472;2024-03-17T06:10:13;12.32;;;12.32;;
71174;SDS011;58876;51.994;4.472;2024-03-17T06:12:39;12.40;;;12.40;;
71174;SDS011;58876;51.994;4.472;2024-03-17T06:15:05;12.32;;;12.32;;
71174;SDS011;58876;51.994;4.472;2024-03-17T06:17:31;12.48;;;12.48;;
71174;SDS011;58876;51.994;4.472;2024-03-17T06:19:57;11.90;;;11.90;;
71174;SDS011;58876;51.994;4.472;2024-03-17T06:22:22;12.14;;;12.14;;
71174;SDS011;58876;51.994;4.472;2024-03-17T06:24:48;12.63;;;12.63;;
71174;SDS011;58876;51.994;4.472;2024-03-17T06:27:15;11.98;;;11.98;;
71174;SDS011;58876;51.994;4.472;2024-03-17T06:29:41;12.49;;;12.49;;
71174;SDS011;58876;51.994;4.472;2024-03-17T06:32:08;11.98;;;11.98;;
71174;SDS011;58876;51.994;4.472;2024-03-17T06:34:33;12.25;;;12.25;;
71174;SDS011;58876;51.994;4.472;2024-03-17T06:36:59;12.49;;;12.49;;
71174;SDS011;58876;51.994;4.472;2024-03-17T06:39:25;12.21;;;12.21;;
71174;SDS011;58876;51.994;4.472;2024-03-17T06:41:51;12.30;;;12.26;;
71174;SDS011;58876;51.994;4.472;2024-03-17T06:44:16;12.11;;;12.10;;
71174;SDS011;58876;51.994;4.472;2024-03-17T06:46:42;11.97;;;11.97;;
71174;SDS011;58876;51.994;4.472;2024-03-17T06:49:07;12.09;;;12.09;;
71174;SDS011;58876;51.994;4.472;2024-03-17T06:51:32;11.79;;;11.74;;
71174;SDS011;58876;51.994;4.472;2024-03-17T06:53:58;12.07;;;12.07;;
71174;SDS011;58876;51.994;4.472;2024-03-17T06:56:24;12.08;;;12.08;;
71174;SDS011;58876;51.994;4.472;2024-03-17T06:58:50;11.76;;;11.76;;
71174;SDS011;58876;51.994;4.472;2024-03-17T07:01:17;11.99;;;11.99;;
71174;SDS011;58876;51.994;4.472;2024-03-17T07:03:42;12.24;;;12.07;;
71174;SDS011;58876;51.994;4.472;2024-03-17T07:06:09;11.87;;;11.63;;
71174;SDS011;58876;51.994;4.472;2024-03-17T07:08:35;11.96;;;11.96;;
71174;SDS011;58876;51.994;4.472;2024-03-17T07:11:01;12.25;;;12.25;;
71174;SDS011;58876;51.994;4.472;2024-03-17T07:13:31;12.11;;;12.11;;
71174;SDS011;58876;51.994;4.472;2024-03-17T07:15:59;11.81;;;11.81;;
71174;SDS011;58876;51.994;4.472;2024-03-17T07:18:26;11.58;;;11.58;;
71174;SDS011;58876;51.994;4.472;2024-03-17T07:20:52;11.82;;;11.82;;
71174;SDS011;58876;51.994;4.472;2024-03-17T07:23:18;11.30;;;11.30;;
71174;SDS011;58876;51.994;4.472;2024-03-17T07:25:53;11.55;;;11.55;;
71174;SDS011;58876;51.994;4.472;2024-03-17T07:28:20;11.76;;;11.76;;
71174;SDS011;58876;51.994;4.472;2024-03-17T07:30:49;11.73;;;11.73;;
71174;SDS011;58876;51.994;4.472;2024-03-17T07:33:19;11.66;;;11.66;;
71174;SDS011;58876;51.994;4.472;2024-03-17T07:35:52;12.10;;;12.10;;
71174;SDS011;58876;51.994;4.472;2024-03-17T07:38:25;11.56;;;11.56;;
71174;SDS011;58876;51.994;4.472;2024-03-17T07:40:58;11.68;;;11.68;;
71174;SDS011;58876;51.994;4.472;2024-03-17T07:43:26;11.47;;;11.47;;
71174;SDS011;58876;51.994;4.472;2024-03-17T07:46:08;11.70;;;11.70;;
71174;SDS011;58876;51.994;4.472;2024-03-17T07:48:38;11.73;;;11.73;;
71174;SDS011;58876;51.994;4.472;2024-03-17T07:51:08;11.63;;;11.63;;
71174;SDS011;58876;51.994;4.472;2024-03-17T07:53:35;11.36;;;11.36;;
71174;SDS011;58876;51.994;4.472;2024-03-17T07:56:06;11.44;;;11.44;;
71174;SDS011;58876;51.994;4.472;2024-03-17T07:58:37;11.36;;;11.36;;
71174;SDS011;58876;51.994;4.472;2024-03-17T08:01:05;11.55;;;11.55;;
71174;SDS011;58876;51.994;4.472;2024-03-17T08:03:32;11.56;;;11.56;;
71174;SDS011;58876;51.994;4.472;2024-03-17T08:05:59;11.40;;;11.40;;
71174;SDS011;58876;51.994;4.472;2024-03-17T08:08:29;11.55;;;11.55;;
71174;SDS011;58876;51.994;4.472;2024-03-17T08:10:55;11.94;;;11.94;;
71174;SDS011;58876;51.994;4.472;2024-03-17T08:13:20;11.34;;;11.34;;
71174;SDS011;58876;51.994;4.472;2024-03-17T08:15:47;11.29;;;11.28;;
71174;SDS011;58876;51.994;4.472;2024-03-17T08:18:21;11.45;;;11.44;;
71174;SDS011;58876;51.994;4.472;2024-03-17T08:20:46;11.55;;;11.54;;
71174;SDS011;58876;51.994;4.472;2024-03-17T08:23:12;11.51;;;11.40;;
71174;SDS011;58876;51.994;4.472;2024-03-17T08:25:38;11.70;;;11.70;;
71174;SDS011;58876;51.994;4.472;2024-03-17T08:28:04;11.47;;;11.47;;
71174;SDS011;58876;51.994;4.472;2024-03-17T08:30:32;11.29;;;11.26;;
71174;SDS011;58876;51.994;4.472;2024-03-17T08:32:58;11.18;;;11.18;;
71174;SDS011;58876;51.994;4.472;2024-03-17T08:35:24;11.25;;;11.24;;
71174;SDS011;58876;51.994;4.472;2024-03-17T08:37:50;11.59;;;11.59;;
71174;SDS011;58876;51.994;4.472;2024-03-17T08:40:22;11.46;;;11.46;;
71174;SDS011;58876;51.994;4.472;2024-03-17T08:42:50;11.27;;;11.27;;
71174;SDS011;58876;51.994;4.472;2024-03-17T08:45:16;11.31;;;11.31;;
71174;SDS011;58876;51.994;4.472;2024-03-17T08:47:41;11.36;;;11.36;;
71174;SDS011;58876;51.994;4.472;2024-03-17T08:50:07;11.05;;;11.05;;
71174;SDS011;58876;51.994;4.472;2024-03-17T08:52:34;10.98;;;10.98;;
71174;SDS011;58876;51.994;4.472;2024-03-17T08:55:00;10.96;;;10.96;;
71174;SDS011;58876;51.994;4.472;2024-03-17T08:57:29;11.28;;;11.28;;
71174;SDS011;58876;51.994;4.472;2024-03-17T08:59:54;12.01;;;12.01;;
71174;SDS011;58876;51.994;4.472;2024-03-17T09:02:20;11.43;;;11.43;;
71174;SDS011;58876;51.994;4.472;2024-03-17T09:04:48;11.39;;;11.39;;
71174;SDS011;58876;51.994;4.472;2024-03-17T09:07:14;11.19;;;11.19;;
71174;SDS011;58876;51.994;4.472;2024-03-17T09:09:43;11.05;;;11.05;;
71174;SDS011;58876;51.994;4.472;2024-03-17T09:12:12;11.55;;;11.55;;
71174;SDS011;58876;51.994;4.472;2024-03-17T09:14:37;11.18;;;11.18;;
71174;SDS011;58876;51.994;4.472;2024-03-17T09:17:03;11.41;;;11.41;;
71174;SDS011;58876;51.994;4.472;2024-03-17T09:19:28;11.08;;;11.08;;
71174;SDS011;58876;51.994;4.472;2024-03-17T09:21:54;11.12;;;11.12;;
71174;SDS011;58876;51.994;4.472;2024-03-17T09:24:20;11.02;;;11.02;;
71174;SDS011;58876;51.994;4.472;2024-03-17T09:26:46;10.89;;;10.89;;
71174;SDS011;58876;51.994;4.472;2024-03-17T09:29:12;10.86;;;10.86;;
71174;SDS011;58876;51.994;4.472;2024-03-17T09:31:38;10.59;;;10.59;;
71174;SDS011;58876;51.994;4.472;2024-03-17T09:34:06;10.71;;;10.71;;
71174;SDS011;58876;51.994;4.472;2024-03-17T09:36:32;10.76;;;10.76;;
71174;SDS011;58876;51.994;4.472;2024-03-17T09:38:57;10.61;;;10.61;;
71174;SDS011;58876;51.994;4.472;2024-03-17T09:41:24;10.63;;;10.63;;
71174;SDS011;58876;51.994;4.472;2024-03-17T09:43:54;10.63;;;10.63;;
71174;SDS011;58876;51.994;4.472;2024-03-17T09:46:24;10.34;;;10.34;;
71174;SDS011;58876;51.994;4.472;2024-03-17T09:48:52;10.07;;;10.07;;
71174;SDS011;58876;51.994;4.472;2024-03-17T09:51:22;10.39;;;10.39;;
71174;SDS011;58876;51.994;4.472;2024-03-17T09:53:50;10.41;;;10.41;;
71174;SDS011;58876;51.994;4.472;2024-03-17T09:56:17;9.98;;;9.98;;
71174;SDS011;58876;51.994;4.472;2024-03-17T09:58:47;10.06;;;10.06;;
71174;SDS011;58876;51.994;4.472;2024-03-17T10:01:14;10.33;;;10.33;;
71174;SDS011;58876;51.994;4.472;2024-03-17T10:03:41;10.42;;;10.42;;
71174;SDS011;58876;51.994;4.472;2024-03-17T10:06:17;10.43;;;10.43;;
71174;SDS011;58876;51.994;4.472;2024-03-17T10:08:44;10.15;;;10.15;;
71174;SDS011;58876;51.994;4.472;2024-03-17T10:11:16;10.12;;;10.12;;
71174;SDS011;58876;51.994;4.472;2024-03-17T10:13:44;9.50;;;9.50;;
71174;SDS011;58876;51.994;4.472;2024-03-17T10:16:21;9.97;;;9.96;;
71174;SDS011;58876;51.994;4.472;2024-03-17T10:18:49;9.67;;;9.67;;
71174;SDS011;58876;51.994;4.472;2024-03-17T10:21:24;9.79;;;9.79;;
71174;SDS011;58876;51.994;4.472;2024-03-17T10:24:04;9.49;;;9.49;;
71174;SDS011;58876;51.994;4.472;2024-03-17T10:26:37;9.29;;;9.29;;
71174;SDS011;58876;51.994;4.472;2024-03-17T10:29:19;9.69;;;9.69;;
71174;SDS011;58876;51.994;4.472;2024-03-17T10:31:50;9.44;;;9.44;;
71174;SDS011;58876;51.994;4.472;2024-03-17T10:34:19;9.27;;;9.27;;
71174;SDS011;58876;51.994;4.472;2024-03-17T10:36:49;9.19;;;9.19;;
71174;SDS011;58876;51.994;4.472;2024-03-17T10:39:31;9.01;;;9.01;;
71174;SDS011;58876;51.994;4.472;2024-03-17T10:41:58;8.69;;;8.69;;
71174;SDS011;58876;51.994;4.472;2024-03-17T10:44:26;8.68;;;8.68;;
71174;SDS011;58876;51.994;4.472;2024-03-17T10:47:00;8.46;;;8.46;;
71174;SDS011;58876;51.994;4.472;2024-03-17T10:49:30;8.39;;;8.39;;
71174;SDS011;58876;51.994;4.472;2024-03-17T10:52:07;8.25;;;8.25;;
71174;SDS011;58876;51.994;4.472;2024-03-17T10:54:39;7.94;;;7.94;;
71174;SDS011;58876;51.994;4.472;2024-03-17T10:57:24;7.90;;;7.90;;
71174;SDS011;58876;51.994;4.472;2024-03-17T11:00:01;7.80;;;7.80;;
71174;SDS011;58876;51.994;4.472;2024-03-17T11:02:30;8.40;;;8.40;;
71174;SDS011;58876;51.994;4.472;2024-03-17T11:05:02;8.60;;;8.60;;
71174;SDS011;58876;51.994;4.472;2024-03-17T11:07:29;8.77;;;8.77;;
71174;SDS011;58876;51.994;4.472;2024-03-17T11:09:56;8.83;;;8.83;;
71174;SDS011;58876;51.994;4.472;2024-03-17T11:17:48;8.10;;;8.10;;
71174;SDS011;58876;51.994;4.472;2024-03-17T11:20:26;8.17;;;8.17;;
71174;SDS011;58876;51.994;4.472;2024-03-17T11:22:59;8.05;;;8.05;;
71174;SDS011;58876;51.994;4.472;2024-03-17T11:27:55;9.01;;;9.01;;
71174;SDS011;58876;51.994;4.472;2024-03-17T11:38:50;8.52;;;8.52;;
71174;SDS011;58876;51.994;4.472;2024-03-17T11:49:26;9.05;;;9.05;;
71174;SDS011;58876;51.994;4.472;2024-03-17T11:51:57;8.90;;;8.90;;
71174;SDS011;58876;51.994;4.472;2024-03-17T11:54:28;8.72;;;8.72;;
71174;SDS011;58876;51.994;4.472;2024-03-17T11:56:55;9.26;;;9.23;;
71174;SDS011;58876;51.994;4.472;2024-03-17T11:59:26;9.17;;;9.17;;
71174;SDS011;58876;51.994;4.472;2024-03-17T12:01:52;8.71;;;8.71;;
71174;SDS011;58876;51.994;4.472;2024-03-17T12:04:18;8.32;;;8.32;;
71174;SDS011;58876;51.994;4.472;2024-03-17T12:11:46;8.14;;;8.14;;
71174;SDS011;58876;51.994;4.472;2024-03-17T12:14:19;7.92;;;7.92;;
71174;SDS011;58876;51.994;4.472;2024-03-17T12:16:51;8.03;;;8.03;;
71174;SDS011;58876;51.994;4.472;2024-03-17T12:19:18;7.82;;;7.82;;
71174;SDS011;58876;51.994;4.472;2024-03-17T12:21:46;7.76;;;7.76;;
71174;SDS011;58876;51.994;4.472;2024-03-17T12:24:19;7.82;;;7.82;;
71174;SDS011;58876;51.994;4.472;2024-03-17T12:26:52;7.77;;;7.77;;
71174;SDS011;58876;51.994;4.472;2024-03-17T12:29:37;7.73;;;7.73;;
71174;SDS011;58876;51.994;4.472;2024-03-17T12:34:35;7.80;;;7.80;;
71174;SDS011;58876;51.994;4.472;2024-03-17T12:37:01;7.68;;;7.68;;
71174;SDS011;58876;51.994;4.472;2024-03-17T12:39:29;7.48;;;7.48;;
71174;SDS011;58876;51.994;4.472;2024-03-17T12:42:03;7.48;;;7.48;;
71174;SDS011;58876;51.994;4.472;2024-03-17T12:44:31;7.32;;;7.32;;
71174;SDS011;58876;51.994;4.472;2024-03-17T12:47:18;7.02;;;7.02;;
71174;SDS011;58876;51.994;4.472;2024-03-17T12:49:45;6.77;;;6.77;;
71174;SDS011;58876;51.994;4.472;2024-03-17T12:54:44;6.75;;;6.75;;
71174;SDS011;58876;51.994;4.472;2024-03-17T12:57:19;7.08;;;7.08;;
71174;SDS011;58876;51.994;4.472;2024-03-17T13:00:17;6.81;;;6.81;;
71174;SDS011;58876;51.994;4.472;2024-03-17T13:02:57;6.91;;;6.91;;
71174;SDS011;58876;51.994;4.472;2024-03-17T13:05:23;6.93;;;6.93;;
71174;SDS011;58876;51.994;4.472;2024-03-17T13:07:49;6.78;;;6.78;;
71174;SDS011;58876;51.994;4.472;2024-03-17T13:10:15;6.63;;;6.63;;
71174;SDS011;58876;51.994;4.472;2024-03-17T13:12:43;6.54;;;6.54;;
71174;SDS011;58876;51.994;4.472;2024-03-17T13:15:14;6.66;;;6.66;;
71174;SDS011;58876;51.994;4.472;2024-03-17T13:17:41;6.51;;;6.51;;
71174;SDS011;58876;51.994;4.472;2024-03-17T13:20:14;6.44;;;6.44;;
71174;SDS011;58876;51.994;4.472;2024-03-17T13:22:41;6.45;;;6.45;;
71174;SDS011;58876;51.994;4.472;2024-03-17T13:25:12;6.84;;;6.84;;
71174;SDS011;58876;51.994;4.472;2024-03-17T13:27:43;6.64;;;6.64;;
71174;SDS011;58876;51.994;4.472;2024-03-17T13:30:10;6.34;;;6.34;;
71174;SDS011;58876;51.994;4.472;2024-03-17T13:32:37;6.99;;;6.99;;
71174;SDS011;58876;51.994;4.472;2024-03-17T13:35:02;6.47;;;6.47;;
71174;SDS011;58876;51.994;4.472;2024-03-17T13:37:28;6.00;;;6.00;;
71174;SDS011;58876;51.994;4.472;2024-03-17T13:39:54;6.14;;;6.14;;
71174;SDS011;58876;51.994;4.472;2024-03-17T13:42:19;5.79;;;5.79;;
71174;SDS011;58876;51.994;4.472;2024-03-17T13:44:45;5.99;;;5.99;;
71174;SDS011;58876;51.994;4.472;2024-03-17T13:47:11;5.99;;;5.99;;
71174;SDS011;58876;51.994;4.472;2024-03-17T13:49:39;6.17;;;6.17;;
71174;SDS011;58876;51.994;4.472;2024-03-17T13:52:04;5.99;;;5.99;;
71174;SDS011;58876;51.994;4.472;2024-03-17T13:54:30;6.40;;;6.40;;
71174;SDS011;58876;51.994;4.472;2024-03-17T13:56:56;6.37;;;6.37;;
71174;SDS011;58876;51.994;4.472;2024-03-17T13:59:23;6.21;;;6.21;;
71174;SDS011;58876;51.994;4.472;2024-03-17T14:01:50;6.40;;;6.40;;
71174;SDS011;58876;51.994;4.472;2024-03-17T14:04:18;6.12;;;6.12;;
71174;SDS011;58876;51.994;4.472;2024-03-17T14:06:44;6.05;;;6.05;;
71174;SDS011;58876;51.994;4.472;2024-03-17T14:09:12;6.35;;;6.35;;
71174;SDS011;58876;51.994;4.472;2024-03-17T14:11:37;6.10;;;6.10;;
71174;SDS011;58876;51.994;4.472;2024-03-17T14:14:06;6.08;;;6.08;;
71174;SDS011;58876;51.994;4.472;2024-03-17T14:16:33;5.82;;;5.82;;
71174;SDS011;58876;51.994;4.472;2024-03-17T14:18:59;5.80;;;5.80;;
71174;SDS011;58876;51.994;4.472;2024-03-17T14:21:25;5.98;;;5.98;;
71174;SDS011;58876;51.994;4.472;2024-03-17T14:23:51;6.35;;;6.35;;
71174;SDS011;58876;51.994;4.472;2024-03-17T14:26:17;5.92;;;5.92;;
71174;SDS011;58876;51.994;4.472;2024-03-17T14:28:43;5.53;;;5.53;;
71174;SDS011;58876;51.994;4.472;2024-03-17T14:31:08;5.55;;;5.55;;
71174;SDS011;58876;51.994;4.472;2024-03-17T14:33:34;5.50;;;5.50;;
71174;SDS011;58876;51.994;4.472;2024-03-17T14:36:00;5.56;;;5.56;;
71174;SDS011;58876;51.994;4.472;2024-03-17T14:38:28;5.47;;;5.47;;
71174;SDS011;58876;51.994;4.472;2024-03-17T14:41:13;5.30;;;5.30;;
71174;SDS011;58876;51.994;4.472;2024-03-17T14:43:38;5.63;;;5.63;;
71174;SDS011;58876;51.994;4.472;2024-03-17T14:46:04;5.37;;;5.37;;
71174;SDS011;58876;51.994;4.472;2024-03-17T14:48:32;5.57;;;5.57;;
71174;SDS011;58876;51.994;4.472;2024-03-17T14:50:59;5.82;;;5.82;;
71174;SDS011;58876;51.994;4.472;2024-03-17T14:53:24;5.64;;;5.64;;
71174;SDS011;58876;51.994;4.472;2024-03-17T14:55:50;5.12;;;5.12;;
71174;SDS011;58876;51.994;4.472;2024-03-17T14:58:15;5.44;;;5.44;;
71174;SDS011;58876;51.994;4.472;2024-03-17T15:00:41;5.69;;;5.69;;
71174;SDS011;58876;51.994;4.472;2024-03-17T15:03:07;5.26;;;5.26;;
71174;SDS011;58876;51.994;4.472;2024-03-17T15:05:32;5.13;;;5.13;;
71174;SDS011;58876;51.994;4.472;2024-03-17T15:07:58;5.84;;;5.84;;
71174;SDS011;58876;51.994;4.472;2024-03-17T15:10:23;5.49;;;5.49;;
71174;SDS011;58876;51.994;4.472;2024-03-17T15:12:50;5.50;;;5.50;;